sensor_id;sensor_type;location;lat;lon;timestamp;P1;durP1;ratioP1;P2;durP2;ratioP2
23470;SDS011;11908;50.806;4.424;2022-08-01T00:00:58;2.42;;;1.13;;
23470;SDS011;11908;50.806;4.424;2022-08-01T00:03:24;2.10;;;1.17;;
23470;SDS011;11908;50.806;4.424;2022-08-01T00:05:50;3.75;;;1.50;;
23470;SDS011;11908;50.806;4.424;2022-08-01T00:08:15;3.60;;;1.30;;
23470;SDS011;11908;50.806;4.424;2022-08-01T00:10:41;6.13;;;1.50;;
23470;SDS011;11908;50.806;4.424;2022-08-01T00:13:07;3.28;;;1.40;;
23470;SDS011;11908;50.806;4.424;2022-08-01T00:15:33;2.35;;;1.20;;
23470;SDS011;11908;50.806;4.424;2022-08-01T00:17:58;3.05;;;1.50;;
23470;SDS011;11908;50.806;4.424;2022-08-01T00:20:24;3.63;;;1.58;;
23470;SDS011;11908;50.806;4.424;2022-08-01T00:22:50;2.65;;;1.35;;
23470;SDS011;11908;50.806;4.424;2022-08-01T00:25:15;4.15;;;1.67;;
23470;SDS011;11908;50.806;4.424;2022-08-01T00:27:41;5.80;;;1.60;;
23470;SDS011;11908;50.806;4.424;2022-08-01T00:30:07;5.43;;;1.63;;
23470;SDS011;11908;50.806;4.424;2022-08-01T00:32:33;5.68;;;2.20;;
23470;SDS011;11908;50.806;4.424;2022-08-01T00:34:58;10.70;;;2.10;;
23470;SDS011;11908;50.806;4.424;2022-08-01T00:37:24;3.60;;;1.90;;
23470;SDS011;11908;50.806;4.424;2022-08-01T00:39:50;4.38;;;2.22;;
23470;SDS011;11908;50.806;4.424;2022-08-01T00:42:15;5.97;;;2.33;;
23470;SDS011;11908;50.806;4.424;2022-08-01T00:44:42;6.45;;;2.05;;
23470;SDS011;11908;50.806;4.424;2022-08-01T00:47:08;7.20;;;2.60;;
23470;SDS011;11908;50.806;4.424;2022-08-01T00:49:34;4.85;;;2.05;;
23470;SDS011;11908;50.806;4.424;2022-08-01T00:52:00;7.13;;;2.45;;
23470;SDS011;11908;50.806;4.424;2022-08-01T00:54:27;11.00;;;2.85;;
23470;SDS011;11908;50.806;4.424;2022-08-01T00:56:53;6.40;;;2.53;;
23470;SDS011;11908;50.806;4.424;2022-08-01T00:59:22;7.63;;;2.95;;
23470;SDS011;11908;50.806;4.424;2022-08-01T01:04:16;6.13;;;2.70;;
23470;SDS011;11908;50.806;4.424;2022-08-01T01:09:16;5.63;;;2.28;;
23470;SDS011;11908;50.806;4.424;2022-08-01T01:14:31;5.15;;;2.13;;
23470;SDS011;11908;50.806;4.424;2022-08-01T01:17:03;5.45;;;2.30;;
23470;SDS011;11908;50.806;4.424;2022-08-01T01:19:33;4.25;;;2.10;;
23470;SDS011;11908;50.806;4.424;2022-08-01T01:27:57;5.93;;;2.22;;
23470;SDS011;11908;50.806;4.424;2022-08-01T01:30:43;4.25;;;1.90;;
23470;SDS011;11908;50.806;4.424;2022-08-01T01:33:11;3.25;;;1.92;;
23470;SDS011;11908;50.806;4.424;2022-08-01T01:35:41;3.55;;;2.33;;
23470;SDS011;11908;50.806;4.424;2022-08-01T01:38:14;5.15;;;2.28;;
23470;SDS011;11908;50.806;4.424;2022-08-01T01:40:53;5.15;;;2.25;;
23470;SDS011;11908;50.806;4.424;2022-08-01T01:43:20;4.15;;;2.00;;
23470;SDS011;11908;50.806;4.424;2022-08-01T01:45:48;3.15;;;1.90;;
23470;SDS011;11908;50.806;4.424;2022-08-01T01:48:16;3.83;;;2.42;;
23470;SDS011;11908;50.806;4.424;2022-08-01T01:50:44;6.40;;;2.92;;
23470;SDS011;11908;50.806;4.424;2022-08-01T01:53:12;5.90;;;2.63;;
23470;SDS011;11908;50.806;4.424;2022-08-01T01:55:39;9.55;;;3.60;;
23470;SDS011;11908;50.806;4.424;2022-08-01T01:58:06;5.88;;;3.25;;
23470;SDS011;11908;50.806;4.424;2022-08-01T02:00:33;6.70;;;3.85;;
23470;SDS011;11908;50.806;4.424;2022-08-01T02:03:02;9.23;;;4.50;;
23470;SDS011;11908;50.806;4.424;2022-08-01T02:05:30;11.75;;;5.80;;
23470;SDS011;11908;50.806;4.424;2022-08-01T02:07:59;15.60;;;6.50;;
23470;SDS011;11908;50.806;4.424;2022-08-01T02:10:26;14.57;;;6.88;;
23470;SDS011;11908;50.806;4.424;2022-08-01T02:12:53;10.98;;;6.03;;
23470;SDS011;11908;50.806;4.424;2022-08-01T02:15:20;11.02;;;6.43;;
23470;SDS011;11908;50.806;4.424;2022-08-01T02:17:49;12.55;;;6.72;;
23470;SDS011;11908;50.806;4.424;2022-08-01T02:20:15;12.13;;;6.80;;
23470;SDS011;11908;50.806;4.424;2022-08-01T02:22:44;10.43;;;6.13;;
23470;SDS011;11908;50.806;4.424;2022-08-01T02:25:19;13.05;;;6.43;;
23470;SDS011;11908;50.806;4.424;2022-08-01T02:28:09;15.85;;;7.35;;
23470;SDS011;11908;50.806;4.424;2022-08-01T02:30:39;13.40;;;6.43;;
23470;SDS011;11908;50.806;4.424;2022-08-01T02:33:12;15.23;;;6.03;;
23470;SDS011;11908;50.806;4.424;2022-08-01T02:35:42;16.15;;;6.85;;
23470;SDS011;11908;50.806;4.424;2022-08-01T02:38:11;15.45;;;6.70;;
23470;SDS011;11908;50.806;4.424;2022-08-01T02:40:39;14.88;;;7.05;;
23470;SDS011;11908;50.806;4.424;2022-08-01T02:43:09;12.80;;;6.70;;
23470;SDS011;11908;50.806;4.424;2022-08-01T02:45:37;15.95;;;7.13;;
23470;SDS011;11908;50.806;4.424;2022-08-01T02:48:11;14.52;;;7.63;;
23470;SDS011;11908;50.806;4.424;2022-08-01T02:50:39;16.30;;;7.88;;
23470;SDS011;11908;50.806;4.424;2022-08-01T02:53:08;12.88;;;7.30;;
23470;SDS011;11908;50.806;4.424;2022-08-01T02:55:35;17.67;;;7.18;;
23470;SDS011;11908;50.806;4.424;2022-08-01T02:58:03;14.20;;;6.80;;
23470;SDS011;11908;50.806;4.424;2022-08-01T03:00:31;13.70;;;7.20;;
23470;SDS011;11908;50.806;4.424;2022-08-01T03:02:58;15.73;;;7.57;;
23470;SDS011;11908;50.806;4.424;2022-08-01T03:05:26;19.77;;;9.02;;
23470;SDS011;11908;50.806;4.424;2022-08-01T03:07:54;19.58;;;9.38;;
23470;SDS011;11908;50.806;4.424;2022-08-01T03:10:21;20.00;;;9.07;;
23470;SDS011;11908;50.806;4.424;2022-08-01T03:12:49;18.60;;;9.25;;
23470;SDS011;11908;50.806;4.424;2022-08-01T03:15:16;22.08;;;9.75;;
23470;SDS011;11908;50.806;4.424;2022-08-01T03:17:44;19.35;;;8.32;;
23470;SDS011;11908;50.806;4.424;2022-08-01T03:20:12;19.83;;;9.48;;
23470;SDS011;11908;50.806;4.424;2022-08-01T03:22:40;16.63;;;9.57;;
23470;SDS011;11908;50.806;4.424;2022-08-01T03:25:08;17.08;;;8.73;;
23470;SDS011;11908;50.806;4.424;2022-08-01T03:27:36;17.33;;;9.30;;
23470;SDS011;11908;50.806;4.424;2022-08-01T03:30:03;24.05;;;9.48;;
23470;SDS011;11908;50.806;4.424;2022-08-01T03:32:30;17.33;;;8.05;;
23470;SDS011;11908;50.806;4.424;2022-08-01T03:34:56;13.60;;;8.95;;
23470;SDS011;11908;50.806;4.424;2022-08-01T03:37:26;14.50;;;8.23;;
23470;SDS011;11908;50.806;4.424;2022-08-01T03:40:00;17.88;;;9.48;;
23470;SDS011;11908;50.806;4.424;2022-08-01T03:42:28;20.80;;;8.38;;
23470;SDS011;11908;50.806;4.424;2022-08-01T03:44:58;19.63;;;9.10;;
23470;SDS011;11908;50.806;4.424;2022-08-01T03:47:30;16.00;;;8.20;;
23470;SDS011;11908;50.806;4.424;2022-08-01T03:49:58;17.92;;;9.27;;
23470;SDS011;11908;50.806;4.424;2022-08-01T03:52:27;20.75;;;8.65;;
23470;SDS011;11908;50.806;4.424;2022-08-01T03:54:54;17.27;;;9.82;;
23470;SDS011;11908;50.806;4.424;2022-08-01T03:57:21;19.15;;;8.90;;
23470;SDS011;11908;50.806;4.424;2022-08-01T03:59:48;25.75;;;11.13;;
23470;SDS011;11908;50.806;4.424;2022-08-01T04:02:14;19.52;;;9.95;;
23470;SDS011;11908;50.806;4.424;2022-08-01T04:04:41;20.08;;;10.23;;
23470;SDS011;11908;50.806;4.424;2022-08-01T04:07:20;19.17;;;9.43;;
23470;SDS011;11908;50.806;4.424;2022-08-01T04:09:53;15.38;;;9.90;;
23470;SDS011;11908;50.806;4.424;2022-08-01T04:12:20;25.48;;;10.20;;
23470;SDS011;11908;50.806;4.424;2022-08-01T04:14:46;20.90;;;11.05;;
23470;SDS011;11908;50.806;4.424;2022-08-01T04:17:12;20.67;;;10.00;;
23470;SDS011;11908;50.806;4.424;2022-08-01T04:19:38;22.17;;;10.43;;
23470;SDS011;11908;50.806;4.424;2022-08-01T04:22:05;17.98;;;9.85;;
23470;SDS011;11908;50.806;4.424;2022-08-01T04:24:31;19.40;;;10.98;;
23470;SDS011;11908;50.806;4.424;2022-08-01T04:27:00;17.30;;;9.98;;
23470;SDS011;11908;50.806;4.424;2022-08-01T04:29:26;18.70;;;10.27;;
23470;SDS011;11908;50.806;4.424;2022-08-01T04:31:55;20.75;;;10.85;;
23470;SDS011;11908;50.806;4.424;2022-08-01T04:34:22;19.90;;;10.57;;
23470;SDS011;11908;50.806;4.424;2022-08-01T04:36:51;18.27;;;10.20;;
23470;SDS011;11908;50.806;4.424;2022-08-01T04:39:19;16.70;;;8.98;;
23470;SDS011;11908;50.806;4.424;2022-08-01T04:41:48;16.20;;;9.95;;
23470;SDS011;11908;50.806;4.424;2022-08-01T04:44:15;14.13;;;9.38;;
23470;SDS011;11908;50.806;4.424;2022-08-01T04:46:41;15.10;;;8.80;;
23470;SDS011;11908;50.806;4.424;2022-08-01T04:49:08;14.52;;;9.68;;
23470;SDS011;11908;50.806;4.424;2022-08-01T04:51:36;13.88;;;9.00;;
23470;SDS011;11908;50.806;4.424;2022-08-01T04:54:14;15.82;;;9.23;;
23470;SDS011;11908;50.806;4.424;2022-08-01T04:56:39;19.38;;;9.65;;
23470;SDS011;11908;50.806;4.424;2022-08-01T04:59:06;12.57;;;8.50;;
23470;SDS011;11908;50.806;4.424;2022-08-01T05:01:50;14.98;;;9.10;;
23470;SDS011;11908;50.806;4.424;2022-08-01T05:04:16;12.32;;;9.07;;
23470;SDS011;11908;50.806;4.424;2022-08-01T05:06:41;14.32;;;9.07;;
23470;SDS011;11908;50.806;4.424;2022-08-01T05:09:07;16.08;;;9.13;;
23470;SDS011;11908;50.806;4.424;2022-08-01T05:11:33;17.60;;;10.25;;
23470;SDS011;11908;50.806;4.424;2022-08-01T05:13:58;20.50;;;11.93;;
23470;SDS011;11908;50.806;4.424;2022-08-01T05:16:24;22.17;;;11.63;;
23470;SDS011;11908;50.806;4.424;2022-08-01T05:18:50;24.23;;;12.52;;
23470;SDS011;11908;50.806;4.424;2022-08-01T05:21:15;24.27;;;12.25;;
23470;SDS011;11908;50.806;4.424;2022-08-01T05:23:41;27.52;;;11.55;;
23470;SDS011;11908;50.806;4.424;2022-08-01T05:26:07;21.17;;;12.20;;
23470;SDS011;11908;50.806;4.424;2022-08-01T05:28:33;20.73;;;12.02;;
23470;SDS011;11908;50.806;4.424;2022-08-01T05:30:59;20.30;;;11.88;;
23470;SDS011;11908;50.806;4.424;2022-08-01T05:33:24;25.58;;;12.88;;
23470;SDS011;11908;50.806;4.424;2022-08-01T05:35:50;23.75;;;12.77;;
23470;SDS011;11908;50.806;4.424;2022-08-01T05:38:16;21.67;;;11.63;;
23470;SDS011;11908;50.806;4.424;2022-08-01T05:40:41;16.45;;;11.07;;
23470;SDS011;11908;50.806;4.424;2022-08-01T05:43:07;17.85;;;10.52;;
23470;SDS011;11908;50.806;4.424;2022-08-01T05:45:33;19.02;;;11.80;;
23470;SDS011;11908;50.806;4.424;2022-08-01T05:47:58;22.10;;;12.13;;
23470;SDS011;11908;50.806;4.424;2022-08-01T05:50:24;18.90;;;12.07;;
23470;SDS011;11908;50.806;4.424;2022-08-01T05:52:50;22.25;;;12.23;;
23470;SDS011;11908;50.806;4.424;2022-08-01T05:55:15;26.20;;;12.95;;
23470;SDS011;11908;50.806;4.424;2022-08-01T05:57:41;20.83;;;12.13;;
23470;SDS011;11908;50.806;4.424;2022-08-01T06:00:07;20.30;;;11.63;;
23470;SDS011;11908;50.806;4.424;2022-08-01T06:02:33;16.75;;;10.63;;
23470;SDS011;11908;50.806;4.424;2022-08-01T06:04:59;17.10;;;10.10;;
23470;SDS011;11908;50.806;4.424;2022-08-01T06:07:24;17.73;;;10.45;;
23470;SDS011;11908;50.806;4.424;2022-08-01T06:09:50;19.35;;;10.35;;
23470;SDS011;11908;50.806;4.424;2022-08-01T06:12:16;19.48;;;9.65;;
23470;SDS011;11908;50.806;4.424;2022-08-01T06:14:41;14.23;;;9.15;;
23470;SDS011;11908;50.806;4.424;2022-08-01T06:17:07;14.23;;;8.82;;
23470;SDS011;11908;50.806;4.424;2022-08-01T06:19:33;12.70;;;9.13;;
23470;SDS011;11908;50.806;4.424;2022-08-01T06:21:58;16.08;;;8.80;;
23470;SDS011;11908;50.806;4.424;2022-08-01T06:24:24;11.15;;;7.63;;
23470;SDS011;11908;50.806;4.424;2022-08-01T06:26:49;11.00;;;8.18;;
23470;SDS011;11908;50.806;4.424;2022-08-01T06:29:15;12.73;;;8.25;;
23470;SDS011;11908;50.806;4.424;2022-08-01T06:31:41;10.73;;;7.70;;
23470;SDS011;11908;50.806;4.424;2022-08-01T06:34:06;9.43;;;7.70;;
23470;SDS011;11908;50.806;4.424;2022-08-01T06:36:32;9.35;;;7.25;;
23470;SDS011;11908;50.806;4.424;2022-08-01T06:38:58;10.98;;;7.20;;
23470;SDS011;11908;50.806;4.424;2022-08-01T06:41:23;10.60;;;7.30;;
23470;SDS011;11908;50.806;4.424;2022-08-01T06:43:49;9.10;;;7.00;;
23470;SDS011;11908;50.806;4.424;2022-08-01T06:46:15;8.27;;;6.40;;
23470;SDS011;11908;50.806;4.424;2022-08-01T06:48:41;8.15;;;5.68;;
23470;SDS011;11908;50.806;4.424;2022-08-01T06:51:07;10.90;;;6.43;;
23470;SDS011;11908;50.806;4.424;2022-08-01T06:53:34;8.27;;;5.32;;
23470;SDS011;11908;50.806;4.424;2022-08-01T06:56:03;8.88;;;5.82;;
23470;SDS011;11908;50.806;4.424;2022-08-01T06:58:30;5.93;;;5.07;;
23470;SDS011;11908;50.806;4.424;2022-08-01T07:00:55;7.13;;;4.70;;
23470;SDS011;11908;50.806;4.424;2022-08-01T07:03:21;7.55;;;4.25;;
23470;SDS011;11908;50.806;4.424;2022-08-01T07:05:47;6.20;;;5.00;;
23470;SDS011;11908;50.806;4.424;2022-08-01T07:08:12;6.38;;;4.68;;
23470;SDS011;11908;50.806;4.424;2022-08-01T07:10:38;5.80;;;3.72;;
23470;SDS011;11908;50.806;4.424;2022-08-01T07:13:04;7.03;;;4.13;;
23470;SDS011;11908;50.806;4.424;2022-08-01T07:15:30;6.75;;;3.67;;
23470;SDS011;11908;50.806;4.424;2022-08-01T07:17:56;7.78;;;3.28;;
23470;SDS011;11908;50.806;4.424;2022-08-01T07:20:22;5.88;;;3.53;;
23470;SDS011;11908;50.806;4.424;2022-08-01T07:22:48;5.40;;;3.47;;
23470;SDS011;11908;50.806;4.424;2022-08-01T07:25:14;5.15;;;3.67;;
23470;SDS011;11908;50.806;4.424;2022-08-01T07:27:40;5.80;;;3.67;;
23470;SDS011;11908;50.806;4.424;2022-08-01T07:30:06;6.30;;;3.47;;
23470;SDS011;11908;50.806;4.424;2022-08-01T07:32:32;5.20;;;3.40;;
23470;SDS011;11908;50.806;4.424;2022-08-01T07:34:59;5.03;;;3.88;;
23470;SDS011;11908;50.806;4.424;2022-08-01T07:37:25;5.40;;;3.85;;
23470;SDS011;11908;50.806;4.424;2022-08-01T07:39:51;4.78;;;3.08;;
23470;SDS011;11908;50.806;4.424;2022-08-01T07:42:17;5.03;;;3.60;;
23470;SDS011;11908;50.806;4.424;2022-08-01T07:44:42;5.82;;;3.40;;
23470;SDS011;11908;50.806;4.424;2022-08-01T07:47:08;4.68;;;3.30;;
23470;SDS011;11908;50.806;4.424;2022-08-01T07:49:33;5.20;;;3.53;;
23470;SDS011;11908;50.806;4.424;2022-08-01T07:52:00;4.72;;;3.22;;
23470;SDS011;11908;50.806;4.424;2022-08-01T07:54:25;5.30;;;2.30;;
23470;SDS011;11908;50.806;4.424;2022-08-01T07:56:52;6.20;;;2.75;;
23470;SDS011;11908;50.806;4.424;2022-08-01T07:59:19;5.07;;;2.85;;
23470;SDS011;11908;50.806;4.424;2022-08-01T08:01:48;3.90;;;2.63;;
23470;SDS011;11908;50.806;4.424;2022-08-01T08:04:15;4.95;;;2.38;;
23470;SDS011;11908;50.806;4.424;2022-08-01T08:06:41;4.20;;;2.70;;
23470;SDS011;11908;50.806;4.424;2022-08-01T08:09:06;3.25;;;2.30;;
23470;SDS011;11908;50.806;4.424;2022-08-01T08:11:32;4.38;;;2.40;;
23470;SDS011;11908;50.806;4.424;2022-08-01T08:13:58;3.20;;;2.55;;
23470;SDS011;11908;50.806;4.424;2022-08-01T08:16:23;4.47;;;2.63;;
23470;SDS011;11908;50.806;4.424;2022-08-01T08:18:49;3.22;;;2.67;;
23470;SDS011;11908;50.806;4.424;2022-08-01T08:21:15;3.25;;;2.95;;
23470;SDS011;11908;50.806;4.424;2022-08-01T08:23:40;4.00;;;2.58;;
23470;SDS011;11908;50.806;4.424;2022-08-01T08:26:25;3.45;;;2.95;;
23470;SDS011;11908;50.806;4.424;2022-08-01T08:28:51;4.30;;;3.15;;
23470;SDS011;11908;50.806;4.424;2022-08-01T08:31:17;3.20;;;2.50;;
23470;SDS011;11908;50.806;4.424;2022-08-01T08:33:42;4.40;;;3.20;;
23470;SDS011;11908;50.806;4.424;2022-08-01T08:36:08;4.32;;;3.20;;
23470;SDS011;11908;50.806;4.424;2022-08-01T08:38:36;3.60;;;3.30;;
23470;SDS011;11908;50.806;4.424;2022-08-01T08:41:01;3.65;;;2.35;;
23470;SDS011;11908;50.806;4.424;2022-08-01T08:43:27;2.67;;;2.47;;
23470;SDS011;11908;50.806;4.424;2022-08-01T08:45:53;2.42;;;2.10;;
23470;SDS011;11908;50.806;4.424;2022-08-01T08:48:19;2.20;;;2.08;;
23470;SDS011;11908;50.806;4.424;2022-08-01T08:50:46;4.15;;;2.45;;
23470;SDS011;11908;50.806;4.424;2022-08-01T08:53:13;3.65;;;1.90;;
23470;SDS011;11908;50.806;4.424;2022-08-01T08:55:41;2.33;;;1.70;;
23470;SDS011;11908;50.806;4.424;2022-08-01T08:58:10;2.97;;;1.52;;
23470;SDS011;11908;50.806;4.424;2022-08-01T09:00:40;4.80;;;1.77;;
23470;SDS011;11908;50.806;4.424;2022-08-01T09:03:06;1.60;;;1.30;;
23470;SDS011;11908;50.806;4.424;2022-08-01T09:05:32;2.53;;;1.17;;
23470;SDS011;11908;50.806;4.424;2022-08-01T09:07:58;5.07;;;1.10;;
23470;SDS011;11908;50.806;4.424;2022-08-01T09:10:24;3.13;;;1.30;;
23470;SDS011;11908;50.806;4.424;2022-08-01T09:13:06;1.10;;;1.00;;
23470;SDS011;11908;50.806;4.424;2022-08-01T09:15:37;3.28;;;1.30;;
23470;SDS011;11908;50.806;4.424;2022-08-01T09:18:05;2.88;;;1.27;;
23470;SDS011;11908;50.806;4.424;2022-08-01T09:20:31;3.70;;;1.20;;
23470;SDS011;11908;50.806;4.424;2022-08-01T09:22:57;2.22;;;1.35;;
23470;SDS011;11908;50.806;4.424;2022-08-01T09:25:22;1.83;;;1.15;;
23470;SDS011;11908;50.806;4.424;2022-08-01T09:27:48;2.92;;;1.55;;
23470;SDS011;11908;50.806;4.424;2022-08-01T09:30:28;3.03;;;0.98;;
23470;SDS011;11908;50.806;4.424;2022-08-01T09:33:03;2.55;;;1.00;;
23470;SDS011;11908;50.806;4.424;2022-08-01T09:35:29;1.30;;;0.93;;
23470;SDS011;11908;50.806;4.424;2022-08-01T09:38:14;1.40;;;0.90;;
23470;SDS011;11908;50.806;4.424;2022-08-01T09:40:45;0.60;;;0.60;;
23470;SDS011;11908;50.806;4.424;2022-08-01T09:43:17;3.30;;;0.90;;
23470;SDS011;11908;50.806;4.424;2022-08-01T09:45:44;1.73;;;0.85;;
23470;SDS011;11908;50.806;4.424;2022-08-01T09:48:10;1.77;;;1.00;;
23470;SDS011;11908;50.806;4.424;2022-08-01T09:50:40;2.92;;;1.20;;
23470;SDS011;11908;50.806;4.424;2022-08-01T09:53:08;2.85;;;0.90;;
23470;SDS011;11908;50.806;4.424;2022-08-01T09:55:34;2.03;;;0.93;;
23470;SDS011;11908;50.806;4.424;2022-08-01T09:58:01;1.73;;;0.88;;
23470;SDS011;11908;50.806;4.424;2022-08-01T10:00:29;2.42;;;1.05;;
23470;SDS011;11908;50.806;4.424;2022-08-01T10:02:56;1.35;;;0.90;;
23470;SDS011;11908;50.806;4.424;2022-08-01T10:05:29;1.38;;;1.20;;
23470;SDS011;11908;50.806;4.424;2022-08-01T10:08:03;1.98;;;1.00;;
23470;SDS011;11908;50.806;4.424;2022-08-01T10:10:30;1.33;;;1.00;;
23470;SDS011;11908;50.806;4.424;2022-08-01T10:12:57;2.28;;;1.30;;
23470;SDS011;11908;50.806;4.424;2022-08-01T10:15:24;1.20;;;1.00;;
23470;SDS011;11908;50.806;4.424;2022-08-01T10:17:55;4.78;;;1.10;;
23470;SDS011;11908;50.806;4.424;2022-08-01T10:20:33;1.88;;;1.27;;
23470;SDS011;11908;50.806;4.424;2022-08-01T10:23:00;1.80;;;1.08;;
23470;SDS011;11908;50.806;4.424;2022-08-01T10:25:28;3.15;;;1.40;;
23470;SDS011;11908;50.806;4.424;2022-08-01T10:27:56;2.25;;;1.30;;
23470;SDS011;11908;50.806;4.424;2022-08-01T10:30:24;2.70;;;0.95;;
23470;SDS011;11908;50.806;4.424;2022-08-01T10:32:50;1.52;;;0.70;;
23470;SDS011;11908;50.806;4.424;2022-08-01T10:35:19;1.25;;;1.00;;
23470;SDS011;11908;50.806;4.424;2022-08-01T10:37:45;2.75;;;0.50;;
23470;SDS011;11908;50.806;4.424;2022-08-01T10:40:14;1.40;;;0.80;;
23470;SDS011;11908;50.806;4.424;2022-08-01T10:42:44;3.08;;;0.88;;
23470;SDS011;11908;50.806;4.424;2022-08-01T10:45:11;0.70;;;0.70;;
23470;SDS011;11908;50.806;4.424;2022-08-01T10:48:01;2.20;;;0.90;;
23470;SDS011;11908;50.806;4.424;2022-08-01T10:50:46;2.33;;;0.80;;
23470;SDS011;11908;50.806;4.424;2022-08-01T10:56:00;1.65;;;0.77;;
23470;SDS011;11908;50.806;4.424;2022-08-01T10:58:38;1.58;;;0.85;;
23470;SDS011;11908;50.806;4.424;2022-08-01T11:03:44;1.70;;;0.85;;
23470;SDS011;11908;50.806;4.424;2022-08-01T11:09:27;1.63;;;0.88;;
23470;SDS011;11908;50.806;4.424;2022-08-01T11:12:10;3.47;;;1.00;;
23470;SDS011;11908;50.806;4.424;2022-08-01T11:22:29;0.82;;;0.57;;
23470;SDS011;11908;50.806;4.424;2022-08-01T11:24:55;1.45;;;0.70;;
23470;SDS011;11908;50.806;4.424;2022-08-01T11:27:29;1.98;;;0.82;;
23470;SDS011;11908;50.806;4.424;2022-08-01T11:32:33;1.38;;;0.70;;
23470;SDS011;11908;50.806;4.424;2022-08-01T11:35:10;1.52;;;0.68;;
23470;SDS011;11908;50.806;4.424;2022-08-01T11:37:36;1.67;;;0.80;;
23470;SDS011;11908;50.806;4.424;2022-08-01T11:40:24;2.53;;;0.70;;
23470;SDS011;11908;50.806;4.424;2022-08-01T11:45:51;1.27;;;0.60;;
23470;SDS011;11908;50.806;4.424;2022-08-01T11:48:21;3.60;;;0.73;;
23470;SDS011;11908;50.806;4.424;2022-08-01T11:50:51;2.40;;;1.00;;
23470;SDS011;11908;50.806;4.424;2022-08-01T11:53:18;2.70;;;0.65;;
23470;SDS011;11908;50.806;4.424;2022-08-01T11:55:53;2.60;;;0.77;;
23470;SDS011;11908;50.806;4.424;2022-08-01T11:58:23;1.95;;;0.80;;
23470;SDS011;11908;50.806;4.424;2022-08-01T12:00:51;1.50;;;0.70;;
23470;SDS011;11908;50.806;4.424;2022-08-01T12:03:28;1.08;;;0.57;;
23470;SDS011;11908;50.806;4.424;2022-08-01T12:05:57;2.35;;;0.52;;
23470;SDS011;11908;50.806;4.424;2022-08-01T12:08:32;3.65;;;0.50;;
23470;SDS011;11908;50.806;4.424;2022-08-01T12:11:00;0.70;;;0.50;;
23470;SDS011;11908;50.806;4.424;2022-08-01T12:13:28;1.58;;;0.50;;
23470;SDS011;11908;50.806;4.424;2022-08-01T12:16:07;1.05;;;0.40;;
23470;SDS011;11908;50.806;4.424;2022-08-01T12:18:40;1.42;;;0.50;;
23470;SDS011;11908;50.806;4.424;2022-08-01T12:23:32;1.20;;;0.68;;
23470;SDS011;11908;50.806;4.424;2022-08-01T12:25:58;1.77;;;0.60;;
23470;SDS011;11908;50.806;4.424;2022-08-01T12:28:25;3.28;;;0.90;;
23470;SDS011;11908;50.806;4.424;2022-08-01T12:30:51;5.75;;;0.75;;
23470;SDS011;11908;50.806;4.424;2022-08-01T12:33:18;3.53;;;1.02;;
23470;SDS011;11908;50.806;4.424;2022-08-01T12:35:45;0.60;;;0.60;;
23470;SDS011;11908;50.806;4.424;2022-08-01T12:38:19;0.95;;;0.50;;
23470;SDS011;11908;50.806;4.424;2022-08-01T12:40:47;3.05;;;0.70;;
23470;SDS011;11908;50.806;4.424;2022-08-01T12:43:17;0.47;;;0.43;;
23470;SDS011;11908;50.806;4.424;2022-08-01T12:45:45;2.63;;;0.82;;
23470;SDS011;11908;50.806;4.424;2022-08-01T12:48:13;2.63;;;0.70;;
23470;SDS011;11908;50.806;4.424;2022-08-01T12:50:49;1.85;;;0.80;;
23470;SDS011;11908;50.806;4.424;2022-08-01T12:53:17;1.00;;;0.60;;
23470;SDS011;11908;50.806;4.424;2022-08-01T12:55:53;2.92;;;0.73;;
23470;SDS011;11908;50.806;4.424;2022-08-01T12:58:20;0.98;;;0.57;;
23470;SDS011;11908;50.806;4.424;2022-08-01T13:00:47;3.40;;;0.70;;
23470;SDS011;11908;50.806;4.424;2022-08-01T13:03:15;1.80;;;0.50;;
23470;SDS011;11908;50.806;4.424;2022-08-01T13:05:52;3.40;;;0.88;;
23470;SDS011;11908;50.806;4.424;2022-08-01T13:08:20;2.17;;;0.77;;
23470;SDS011;11908;50.806;4.424;2022-08-01T13:10:50;1.75;;;0.70;;
23470;SDS011;11908;50.806;4.424;2022-08-01T13:13:24;2.13;;;0.90;;
23470;SDS011;11908;50.806;4.424;2022-08-01T13:16:05;7.82;;;1.00;;
23470;SDS011;11908;50.806;4.424;2022-08-01T13:18:32;1.55;;;0.75;;
23470;SDS011;11908;50.806;4.424;2022-08-01T13:21:15;3.40;;;0.85;;
23470;SDS011;11908;50.806;4.424;2022-08-01T13:29:06;4.90;;;0.93;;
23470;SDS011;11908;50.806;4.424;2022-08-01T13:31:33;2.45;;;0.80;;
23470;SDS011;11908;50.806;4.424;2022-08-01T13:34:00;2.38;;;0.80;;
23470;SDS011;11908;50.806;4.424;2022-08-01T13:36:26;2.10;;;0.80;;
23470;SDS011;11908;50.806;4.424;2022-08-01T13:38:56;1.85;;;0.80;;
23470;SDS011;11908;50.806;4.424;2022-08-01T13:41:40;1.80;;;0.80;;
23470;SDS011;11908;50.806;4.424;2022-08-01T13:44:06;4.47;;;0.93;;
23470;SDS011;11908;50.806;4.424;2022-08-01T13:46:34;2.25;;;0.80;;
23470;SDS011;11908;50.806;4.424;2022-08-01T13:49:01;3.88;;;0.90;;
23470;SDS011;11908;50.806;4.424;2022-08-01T13:51:30;4.60;;;1.00;;
23470;SDS011;11908;50.806;4.424;2022-08-01T13:53:56;1.75;;;0.88;;
23470;SDS011;11908;50.806;4.424;2022-08-01T13:56:22;2.70;;;0.70;;
23470;SDS011;11908;50.806;4.424;2022-08-01T13:58:49;3.97;;;0.77;;
23470;SDS011;11908;50.806;4.424;2022-08-01T14:01:15;2.38;;;1.02;;
23470;SDS011;11908;50.806;4.424;2022-08-01T14:03:41;1.85;;;0.77;;
23470;SDS011;11908;50.806;4.424;2022-08-01T14:06:07;2.92;;;0.90;;
23470;SDS011;11908;50.806;4.424;2022-08-01T14:08:33;2.40;;;0.88;;
23470;SDS011;11908;50.806;4.424;2022-08-01T14:10:58;1.13;;;0.60;;
23470;SDS011;11908;50.806;4.424;2022-08-01T14:13:25;1.63;;;0.75;;
23470;SDS011;11908;50.806;4.424;2022-08-01T14:15:51;6.03;;;0.93;;
23470;SDS011;11908;50.806;4.424;2022-08-01T14:18:17;2.75;;;0.88;;
23470;SDS011;11908;50.806;4.424;2022-08-01T14:20:43;1.38;;;1.00;;
23470;SDS011;11908;50.806;4.424;2022-08-01T14:23:09;1.27;;;0.70;;
23470;SDS011;11908;50.806;4.424;2022-08-01T14:25:38;2.08;;;0.80;;
23470;SDS011;11908;50.806;4.424;2022-08-01T14:28:05;0.88;;;0.70;;
23470;SDS011;11908;50.806;4.424;2022-08-01T14:30:31;2.50;;;0.75;;
23470;SDS011;11908;50.806;4.424;2022-08-01T14:32:57;4.90;;;1.15;;
23470;SDS011;11908;50.806;4.424;2022-08-01T14:35:23;5.10;;;1.00;;
23470;SDS011;11908;50.806;4.424;2022-08-01T14:37:49;2.03;;;0.70;;
23470;SDS011;11908;50.806;4.424;2022-08-01T14:40:14;2.25;;;0.70;;
23470;SDS011;11908;50.806;4.424;2022-08-01T14:42:40;1.88;;;0.90;;
23470;SDS011;11908;50.806;4.424;2022-08-01T14:45:06;3.28;;;0.90;;
23470;SDS011;11908;50.806;4.424;2022-08-01T14:47:38;3.13;;;0.90;;
23470;SDS011;11908;50.806;4.424;2022-08-01T14:50:06;1.48;;;0.65;;
23470;SDS011;11908;50.806;4.424;2022-08-01T14:52:34;1.20;;;0.60;;
23470;SDS011;11908;50.806;4.424;2022-08-01T14:55:00;1.17;;;0.90;;
23470;SDS011;11908;50.806;4.424;2022-08-01T14:57:26;1.83;;;0.68;;
23470;SDS011;11908;50.806;4.424;2022-08-01T14:59:52;2.15;;;0.90;;
23470;SDS011;11908;50.806;4.424;2022-08-01T15:02:18;4.25;;;0.80;;
23470;SDS011;11908;50.806;4.424;2022-08-01T15:04:46;3.80;;;0.93;;
23470;SDS011;11908;50.806;4.424;2022-08-01T15:07:13;0.70;;;0.70;;
23470;SDS011;11908;50.806;4.424;2022-08-01T15:09:38;2.13;;;0.90;;
23470;SDS011;11908;50.806;4.424;2022-08-01T15:12:04;2.47;;;0.80;;
23470;SDS011;11908;50.806;4.424;2022-08-01T15:14:31;1.10;;;0.70;;
23470;SDS011;11908;50.806;4.424;2022-08-01T15:19:54;3.30;;;0.90;;
23470;SDS011;11908;50.806;4.424;2022-08-01T15:22:21;1.42;;;0.90;;
23470;SDS011;11908;50.806;4.424;2022-08-01T15:24:48;1.02;;;0.70;;
23470;SDS011;11908;50.806;4.424;2022-08-01T15:27:14;1.70;;;0.80;;
23470;SDS011;11908;50.806;4.424;2022-08-01T15:29:40;2.15;;;0.80;;
23470;SDS011;11908;50.806;4.424;2022-08-01T15:32:07;2.42;;;0.90;;
23470;SDS011;11908;50.806;4.424;2022-08-01T15:34:33;6.13;;;1.23;;